sensor_id;sensor_type;location;lat;lon;timestamp;temperature;humidity
25482;DHT22;13395;50.752;4.268;2023-04-03T00:00:12;2.60;99.90
25482;DHT22;13395;50.752;4.268;2023-04-03T00:02:38;2.70;99.90
25482;DHT22;13395;50.752;4.268;2023-04-03T00:05:06;2.70;99.90
25482;DHT22;13395;50.752;4.268;2023-04-03T00:07:31;2.60;99.90
25482;DHT22;13395;50.752;4.268;2023-04-03T00:09:57;2.60;99.90
25482;DHT22;13395;50.752;4.268;2023-04-03T00:12:23;2.50;99.90
25482;DHT22;13395;50.752;4.268;2023-04-03T00:14:48;2.50;99.90
25482;DHT22;13395;50.752;4.268;2023-04-03T00:17:14;2.40;99.90
25482;DHT22;13395;50.752;4.268;2023-04-03T00:19:39;2.40;99.90
25482;DHT22;13395;50.752;4.268;2023-04-03T00:22:05;2.40;99.90
25482;DHT22;13395;50.752;4.268;2023-04-03T00:24:31;2.50;99.90
25482;DHT22;13395;50.752;4.268;2023-04-03T00:26:56;2.40;99.90
25482;DHT22;13395;50.752;4.268;2023-04-03T00:29:22;2.40;99.90
25482;DHT22;13395;50.752;4.268;2023-04-03T00:31:48;2.40;99.90
25482;DHT22;13395;50.752;4.268;2023-04-03T00:34:13;2.40;99.90
25482;DHT22;13395;50.752;4.268;2023-04-03T00:36:39;2.60;99.90
25482;DHT22;13395;50.752;4.268;2023-04-03T00:39:04;2.40;99.90
25482;DHT22;13395;50.752;4.268;2023-04-03T00:41:31;2.30;99.90
25482;DHT22;13395;50.752;4.268;2023-04-03T00:43:57;2.30;99.90
25482;DHT22;13395;50.752;4.268;2023-04-03T00:46:23;2.10;99.90
25482;DHT22;13395;50.752;4.268;2023-04-03T00:48:49;2.00;99.90
25482;DHT22;13395;50.752;4.268;2023-04-03T00:51:19;2.00;99.90
25482;DHT22;13395;50.752;4.268;2023-04-03T00:53:50;2.10;99.90
25482;DHT22;13395;50.752;4.268;2023-04-03T00:56:20;2.00;99.90
25482;DHT22;13395;50.752;4.268;2023-04-03T00:58:53;2.20;99.90
25482;DHT22;13395;50.752;4.268;2023-04-03T01:01:26;2.00;99.90
25482;DHT22;13395;50.752;4.268;2023-04-03T01:03:52;2.00;99.90
25482;DHT22;13395;50.752;4.268;2023-04-03T01:06:21;2.10;99.90
25482;DHT22;13395;50.752;4.268;2023-04-03T01:08:49;2.00;99.90
25482;DHT22;13395;50.752;4.268;2023-04-03T01:11:16;2.00;99.90
25482;DHT22;13395;50.752;4.268;2023-04-03T01:13:41;2.00;99.90
25482;DHT22;13395;50.752;4.268;2023-04-03T01:16:08;2.00;99.90
25482;DHT22;13395;50.752;4.268;2023-04-03T01:18:36;2.00;99.90
25482;DHT22;13395;50.752;4.268;2023-04-03T01:21:31;2.00;99.90
25482;DHT22;13395;50.752;4.268;2023-04-03T01:26:30;2.10;99.90
25482;DHT22;13395;50.752;4.268;2023-04-03T01:28:55;2.00;99.90
25482;DHT22;13395;50.752;4.268;2023-04-03T01:34:08;2.10;99.90
25482;DHT22;13395;50.752;4.268;2023-04-03T01:36:34;2.10;99.90
25482;DHT22;13395;50.752;4.268;2023-04-03T01:39:00;2.20;99.90
25482;DHT22;13395;50.752;4.268;2023-04-03T01:41:27;2.20;99.90
25482;DHT22;13395;50.752;4.268;2023-04-03T01:43:52;2.20;99.90
25482;DHT22;13395;50.752;4.268;2023-04-03T01:46:19;2.30;99.90
25482;DHT22;13395;50.752;4.268;2023-04-03T01:48:45;2.20;99.90
25482;DHT22;13395;50.752;4.268;2023-04-03T01:51:11;2.20;99.90
25482;DHT22;13395;50.752;4.268;2023-04-03T01:53:37;2.40;99.90
25482;DHT22;13395;50.752;4.268;2023-04-03T01:56:03;2.20;99.90
25482;DHT22;13395;50.752;4.268;2023-04-03T01:58:29;2.20;99.90
25482;DHT22;13395;50.752;4.268;2023-04-03T02:00:54;2.20;99.90
25482;DHT22;13395;50.752;4.268;2023-04-03T02:03:21;2.20;99.90
25482;DHT22;13395;50.752;4.268;2023-04-03T02:05:47;2.20;99.90
25482;DHT22;13395;50.752;4.268;2023-04-03T02:08:12;2.30;99.90
25482;DHT22;13395;50.752;4.268;2023-04-03T02:10:39;2.20;99.90
25482;DHT22;13395;50.752;4.268;2023-04-03T02:13:05;2.20;99.90
25482;DHT22;13395;50.752;4.268;2023-04-03T02:15:31;2.20;99.90
25482;DHT22;13395;50.752;4.268;2023-04-03T02:17:57;2.30;99.90
25482;DHT22;13395;50.752;4.268;2023-04-03T02:20:22;2.30;99.90
25482;DHT22;13395;50.752;4.268;2023-04-03T02:22:48;2.30;99.90
25482;DHT22;13395;50.752;4.268;2023-04-03T02:25:14;2.20;99.90
25482;DHT22;13395;50.752;4.268;2023-04-03T02:27:39;2.20;99.90
25482;DHT22;13395;50.752;4.268;2023-04-03T02:30:05;2.20;99.90
25482;DHT22;13395;50.752;4.268;2023-04-03T02:32:32;2.30;99.90
25482;DHT22;13395;50.752;4.268;2023-04-03T02:34:57;2.30;99.90
25482;DHT22;13395;50.752;4.268;2023-04-03T02:37:23;2.20;99.90
25482;DHT22;13395;50.752;4.268;2023-04-03T02:39:49;2.20;99.90
25482;DHT22;13395;50.752;4.268;2023-04-03T02:42:15;2.30;99.90
25482;DHT22;13395;50.752;4.268;2023-04-03T02:44:40;2.30;99.90
25482;DHT22;13395;50.752;4.268;2023-04-03T02:47:06;2.20;99.90
25482;DHT22;13395;50.752;4.268;2023-04-03T02:49:31;2.20;99.90
25482;DHT22;13395;50.752;4.268;2023-04-03T02:51:57;2.20;99.90
25482;DHT22;13395;50.752;4.268;2023-04-03T02:54:23;2.10;99.90
25482;DHT22;13395;50.752;4.268;2023-04-03T02:56:49;2.10;99.90
25482;DHT22;13395;50.752;4.268;2023-04-03T02:59:15;2.10;99.90
25482;DHT22;13395;50.752;4.268;2023-04-03T03:01:41;2.10;99.90
25482;DHT22;13395;50.752;4.268;2023-04-03T03:04:06;2.10;99.90
25482;DHT22;13395;50.752;4.268;2023-04-03T03:06:32;2.10;99.90
25482;DHT22;13395;50.752;4.268;2023-04-03T03:08:58;2.10;99.90
25482;DHT22;13395;50.752;4.268;2023-04-03T03:11:24;2.10;99.90
25482;DHT22;13395;50.752;4.268;2023-04-03T03:13:50;2.10;99.90
25482;DHT22;13395;50.752;4.268;2023-04-03T03:16:16;2.10;99.90
25482;DHT22;13395;50.752;4.268;2023-04-03T03:18:41;2.10;99.90
25482;DHT22;13395;50.752;4.268;2023-04-03T03:21:08;2.00;99.90
25482;DHT22;13395;50.752;4.268;2023-04-03T03:23:34;2.00;99.90
25482;DHT22;13395;50.752;4.268;2023-04-03T03:26:03;2.10;99.90
25482;DHT22;13395;50.752;4.268;2023-04-03T03:28:29;2.00;99.90
25482;DHT22;13395;50.752;4.268;2023-04-03T03:30:56;2.00;99.90
25482;DHT22;13395;50.752;4.268;2023-04-03T03:33:21;2.00;99.90
25482;DHT22;13395;50.752;4.268;2023-04-03T03:35:47;2.00;99.90
25482;DHT22;13395;50.752;4.268;2023-04-03T03:38:13;1.90;99.90
25482;DHT22;13395;50.752;4.268;2023-04-03T03:40:38;1.90;99.90
25482;DHT22;13395;50.752;4.268;2023-04-03T03:43:04;1.90;99.90
25482;DHT22;13395;50.752;4.268;2023-04-03T03:45:30;2.00;99.90
25482;DHT22;13395;50.752;4.268;2023-04-03T03:47:56;1.90;99.90
25482;DHT22;13395;50.752;4.268;2023-04-03T03:50:22;1.90;99.90
25482;DHT22;13395;50.752;4.268;2023-04-03T03:52:47;1.90;99.90
25482;DHT22;13395;50.752;4.268;2023-04-03T03:55:13;1.90;99.90
25482;DHT22;13395;50.752;4.268;2023-04-03T03:57:38;1.90;99.90
25482;DHT22;13395;50.752;4.268;2023-04-03T04:00:05;1.90;99.90
25482;DHT22;13395;50.752;4.268;2023-04-03T04:02:32;1.80;99.90
25482;DHT22;13395;50.752;4.268;2023-04-03T04:04:58;1.80;99.90
25482;DHT22;13395;50.752;4.268;2023-04-03T04:07:24;1.80;99.90
25482;DHT22;13395;50.752;4.268;2023-04-03T04:09:49;1.80;99.90
25482;DHT22;13395;50.752;4.268;2023-04-03T04:12:15;1.80;99.90
25482;DHT22;13395;50.752;4.268;2023-04-03T04:14:41;1.80;99.90
25482;DHT22;13395;50.752;4.268;2023-04-03T04:17:06;1.80;99.90
25482;DHT22;13395;50.752;4.268;2023-04-03T04:19:32;1.80;99.90
25482;DHT22;13395;50.752;4.268;2023-04-03T04:21:58;1.90;99.90
25482;DHT22;13395;50.752;4.268;2023-04-03T04:24:24;1.90;99.90
25482;DHT22;13395;50.752;4.268;2023-04-03T04:26:50;1.70;99.90
25482;DHT22;13395;50.752;4.268;2023-04-03T04:29:15;1.70;99.90
25482;DHT22;13395;50.752;4.268;2023-04-03T04:31:41;1.70;99.90
25482;DHT22;13395;50.752;4.268;2023-04-03T04:34:07;1.70;99.90
25482;DHT22;13395;50.752;4.268;2023-04-03T04:36:32;1.60;99.90
25482;DHT22;13395;50.752;4.268;2023-04-03T04:38:58;1.70;99.90
25482;DHT22;13395;50.752;4.268;2023-04-03T04:41:24;1.70;99.90
25482;DHT22;13395;50.752;4.268;2023-04-03T04:43:50;1.70;99.90
25482;DHT22;13395;50.752;4.268;2023-04-03T04:46:16;1.60;99.90
25482;DHT22;13395;50.752;4.268;2023-04-03T04:48:41;1.60;99.90
25482;DHT22;13395;50.752;4.268;2023-04-03T04:51:07;1.60;99.90
25482;DHT22;13395;50.752;4.268;2023-04-03T04:53:33;1.60;99.90
25482;DHT22;13395;50.752;4.268;2023-04-03T04:55:59;1.60;99.90
25482;DHT22;13395;50.752;4.268;2023-04-03T04:58:24;1.60;99.90
25482;DHT22;13395;50.752;4.268;2023-04-03T05:00:59;1.70;99.90
25482;DHT22;13395;50.752;4.268;2023-04-03T05:03:24;1.70;99.90
25482;DHT22;13395;50.752;4.268;2023-04-03T05:05:50;1.60;99.90
25482;DHT22;13395;50.752;4.268;2023-04-03T05:08:15;1.70;99.90
25482;DHT22;13395;50.752;4.268;2023-04-03T05:10:41;1.60;99.90
25482;DHT22;13395;50.752;4.268;2023-04-03T05:13:07;1.60;99.90
25482;DHT22;13395;50.752;4.268;2023-04-03T05:15:33;1.60;99.90
25482;DHT22;13395;50.752;4.268;2023-04-03T05:17:58;1.60;99.90
25482;DHT22;13395;50.752;4.268;2023-04-03T05:20:24;1.60;99.90
25482;DHT22;13395;50.752;4.268;2023-04-03T05:22:50;1.60;99.90
25482;DHT22;13395;50.752;4.268;2023-04-03T05:25:16;1.70;99.90
25482;DHT22;13395;50.752;4.268;2023-04-03T05:27:41;1.70;99.90
25482;DHT22;13395;50.752;4.268;2023-04-03T05:30:07;1.70;99.90
25482;DHT22;13395;50.752;4.268;2023-04-03T05:32:33;1.80;99.90
25482;DHT22;13395;50.752;4.268;2023-04-03T05:34:59;1.70;99.90
25482;DHT22;13395;50.752;4.268;2023-04-03T05:37:25;1.80;99.90
25482;DHT22;13395;50.752;4.268;2023-04-03T05:39:50;1.80;99.90
25482;DHT22;13395;50.752;4.268;2023-04-03T05:42:17;1.80;99.90
25482;DHT22;13395;50.752;4.268;2023-04-03T05:44:42;1.90;99.90
25482;DHT22;13395;50.752;4.268;2023-04-03T05:47:08;1.90;99.90
25482;DHT22;13395;50.752;4.268;2023-04-03T05:49:34;1.90;99.90
25482;DHT22;13395;50.752;4.268;2023-04-03T05:52:01;1.90;99.90
25482;DHT22;13395;50.752;4.268;2023-04-03T05:54:29;2.00;99.90
25482;DHT22;13395;50.752;4.268;2023-04-03T05:56:55;2.00;99.90
25482;DHT22;13395;50.752;4.268;2023-04-03T05:59:21;2.10;99.90
25482;DHT22;13395;50.752;4.268;2023-04-03T06:01:47;2.20;99.90
25482;DHT22;13395;50.752;4.268;2023-04-03T06:04:14;2.30;99.90
25482;DHT22;13395;50.752;4.268;2023-04-03T06:06:58;2.30;99.90
25482;DHT22;13395;50.752;4.268;2023-04-03T06:09:26;2.50;99.90
25482;DHT22;13395;50.752;4.268;2023-04-03T06:11:52;2.60;99.90
25482;DHT22;13395;50.752;4.268;2023-04-03T06:14:18;2.90;99.90
25482;DHT22;13395;50.752;4.268;2023-04-03T06:16:44;3.40;99.90
25482;DHT22;13395;50.752;4.268;2023-04-03T06:19:11;3.80;99.90
25482;DHT22;13395;50.752;4.268;2023-04-03T06:21:37;4.50;99.90
25482;DHT22;13395;50.752;4.268;2023-04-03T06:24:04;5.00;99.90
25482;DHT22;13395;50.752;4.268;2023-04-03T06:26:31;5.70;99.90
25482;DHT22;13395;50.752;4.268;2023-04-03T06:28:57;6.60;99.90
25482;DHT22;13395;50.752;4.268;2023-04-03T06:31:23;7.10;99.90
25482;DHT22;13395;50.752;4.268;2023-04-03T06:33:49;7.40;99.90
25482;DHT22;13395;50.752;4.268;2023-04-03T06:36:15;8.10;99.90
25482;DHT22;13395;50.752;4.268;2023-04-03T06:38:45;9.20;99.90
25482;DHT22;13395;50.752;4.268;2023-04-03T06:41:11;10.40;99.90
25482;DHT22;13395;50.752;4.268;2023-04-03T06:43:37;10.60;99.90
25482;DHT22;13395;50.752;4.268;2023-04-03T06:46:03;10.80;99.90
25482;DHT22;13395;50.752;4.268;2023-04-03T06:48:29;11.20;99.90
25482;DHT22;13395;50.752;4.268;2023-04-03T06:50:54;12.10;99.90
25482;DHT22;13395;50.752;4.268;2023-04-03T06:53:20;12.50;99.90
25482;DHT22;13395;50.752;4.268;2023-04-03T06:55:47;13.70;99.90
25482;DHT22;13395;50.752;4.268;2023-04-03T06:58:13;14.50;99.90
25482;DHT22;13395;50.752;4.268;2023-04-03T07:00:40;15.40;98.80
25482;DHT22;13395;50.752;4.268;2023-04-03T07:03:06;16.10;95.80
25482;DHT22;13395;50.752;4.268;2023-04-03T07:05:32;16.20;93.90
25482;DHT22;13395;50.752;4.268;2023-04-03T07:07:57;17.00;93.40
25482;DHT22;13395;50.752;4.268;2023-04-03T07:10:23;17.50;91.90
25482;DHT22;13395;50.752;4.268;2023-04-03T07:12:49;17.90;90.40
25482;DHT22;13395;50.752;4.268;2023-04-03T07:15:14;18.40;88.60
25482;DHT22;13395;50.752;4.268;2023-04-03T07:17:40;19.00;86.40
25482;DHT22;13395;50.752;4.268;2023-04-03T07:20:06;18.50;81.70
25482;DHT22;13395;50.752;4.268;2023-04-03T07:22:32;18.20;84.30
25482;DHT22;13395;50.752;4.268;2023-04-03T07:24:58;18.60;84.50
25482;DHT22;13395;50.752;4.268;2023-04-03T07:27:25;18.60;80.60
25482;DHT22;13395;50.752;4.268;2023-04-03T07:29:51;18.40;82.90
25482;DHT22;13395;50.752;4.268;2023-04-03T07:32:17;18.50;80.50
25482;DHT22;13395;50.752;4.268;2023-04-03T07:34:43;18.80;81.70
25482;DHT22;13395;50.752;4.268;2023-04-03T07:37:09;18.70;79.30
25482;DHT22;13395;50.752;4.268;2023-04-03T07:39:35;18.60;80.10
25482;DHT22;13395;50.752;4.268;2023-04-03T07:42:01;19.30;79.80
25482;DHT22;13395;50.752;4.268;2023-04-03T07:44:27;19.00;77.30
25482;DHT22;13395;50.752;4.268;2023-04-03T07:46:53;19.00;79.20
25482;DHT22;13395;50.752;4.268;2023-04-03T07:49:20;20.20;76.00
25482;DHT22;13395;50.752;4.268;2023-04-03T07:51:48;20.30;74.40
25482;DHT22;13395;50.752;4.268;2023-04-03T07:54:14;20.30;74.10
25482;DHT22;13395;50.752;4.268;2023-04-03T07:56:40;20.60;73.40
25482;DHT22;13395;50.752;4.268;2023-04-03T07:59:08;20.40;71.80
25482;DHT22;13395;50.752;4.268;2023-04-03T08:01:34;20.50;71.40
25482;DHT22;13395;50.752;4.268;2023-04-03T08:04:00;20.30;71.00
25482;DHT22;13395;50.752;4.268;2023-04-03T08:06:26;21.00;72.10
25482;DHT22;13395;50.752;4.268;2023-04-03T08:08:51;21.00;70.80
25482;DHT22;13395;50.752;4.268;2023-04-03T08:11:17;21.60;69.10
25482;DHT22;13395;50.752;4.268;2023-04-03T08:13:44;21.70;68.20
25482;DHT22;13395;50.752;4.268;2023-04-03T08:16:17;22.10;67.40
25482;DHT22;13395;50.752;4.268;2023-04-03T08:18:43;22.50;65.90
25482;DHT22;13395;50.752;4.268;2023-04-03T08:21:11;22.40;64.10
25482;DHT22;13395;50.752;4.268;2023-04-03T08:23:38;21.50;64.70
25482;DHT22;13395;50.752;4.268;2023-04-03T08:26:08;20.50;65.50
25482;DHT22;13395;50.752;4.268;2023-04-03T08:28:34;20.60;65.90
25482;DHT22;13395;50.752;4.268;2023-04-03T08:31:09;21.00;66.40
25482;DHT22;13395;50.752;4.268;2023-04-03T08:33:37;20.80;64.70
25482;DHT22;13395;50.752;4.268;2023-04-03T08:36:07;20.20;66.00
25482;DHT22;13395;50.752;4.268;2023-04-03T08:38:34;20.10;65.50
25482;DHT22;13395;50.752;4.268;2023-04-03T08:49:33;20.70;65.90
25482;DHT22;13395;50.752;4.268;2023-04-03T08:52:04;21.50;65.00
25482;DHT22;13395;50.752;4.268;2023-04-03T08:54:34;22.00;62.80
25482;DHT22;13395;50.752;4.268;2023-04-03T08:57:03;21.60;62.50
25482;DHT22;13395;50.752;4.268;2023-04-03T08:59:34;21.10;62.20
25482;DHT22;13395;50.752;4.268;2023-04-03T09:02:04;21.70;63.00
25482;DHT22;13395;50.752;4.268;2023-04-03T09:04:32;22.60;61.00
25482;DHT22;13395;50.752;4.268;2023-04-03T09:07:08;23.10;58.20
25482;DHT22;13395;50.752;4.268;2023-04-03T09:09:41;23.30;59.70
25482;DHT22;13395;50.752;4.268;2023-04-03T09:12:17;23.50;57.10
25482;DHT22;13395;50.752;4.268;2023-04-03T09:22:51;21.80;57.40
25482;DHT22;13395;50.752;4.268;2023-04-03T09:25:25;21.00;57.60
25482;DHT22;13395;50.752;4.268;2023-04-03T09:27:53;20.00;59.30
25482;DHT22;13395;50.752;4.268;2023-04-03T09:30:22;19.80;60.50
25482;DHT22;13395;50.752;4.268;2023-04-03T09:32:51;19.90;60.90
25482;DHT22;13395;50.752;4.268;2023-04-03T09:37:50;20.50;59.70
25482;DHT22;13395;50.752;4.268;2023-04-03T09:40:33;21.30;58.90
25482;DHT22;13395;50.752;4.268;2023-04-03T09:43:08;20.90;58.10
25482;DHT22;13395;50.752;4.268;2023-04-03T09:45:45;20.40;59.80
25482;DHT22;13395;50.752;4.268;2023-04-03T09:51:00;21.20;58.60
25482;DHT22;13395;50.752;4.268;2023-04-03T09:53:41;21.20;57.50
25482;DHT22;13395;50.752;4.268;2023-04-03T09:58:44;21.60;58.00
25482;DHT22;13395;50.752;4.268;2023-04-03T10:04:18;21.60;56.80
25482;DHT22;13395;50.752;4.268;2023-04-03T10:06:49;20.90;58.10
25482;DHT22;13395;50.752;4.268;2023-04-03T10:09:25;20.90;56.80
25482;DHT22;13395;50.752;4.268;2023-04-03T10:14:23;20.00;57.00
25482;DHT22;13395;50.752;4.268;2023-04-03T10:22:02;20.00;56.80
25482;DHT22;13395;50.752;4.268;2023-04-03T10:38:19;22.00;53.60
25482;DHT22;13395;50.752;4.268;2023-04-03T10:40:57;21.60;53.40
25482;DHT22;13395;50.752;4.268;2023-04-03T10:43:57;22.20;53.20
25482;DHT22;13395;50.752;4.268;2023-04-03T10:46:55;22.40;51.40
25482;DHT22;13395;50.752;4.268;2023-04-03T10:57:50;22.60;51.50
25482;DHT22;13395;50.752;4.268;2023-04-03T11:00:21;22.60;49.70
25482;DHT22;13395;50.752;4.268;2023-04-03T11:03:00;23.20;50.80
25482;DHT22;13395;50.752;4.268;2023-04-03T11:07:58;21.30;49.50
25482;DHT22;13395;50.752;4.268;2023-04-03T11:10:45;21.50;50.70
25482;DHT22;13395;50.752;4.268;2023-04-03T11:13:27;21.40;49.70
25482;DHT22;13395;50.752;4.268;2023-04-03T11:15:54;21.60;48.90
25482;DHT22;13395;50.752;4.268;2023-04-03T11:19:08;22.30;50.80
25482;DHT22;13395;50.752;4.268;2023-04-03T11:21:14;22.90;48.90
25482;DHT22;13395;50.752;4.268;2023-04-03T11:23:44;22.50;48.50
25482;DHT22;13395;50.752;4.268;2023-04-03T11:26:21;23.00;49.50
25482;DHT22;13395;50.752;4.268;2023-04-03T11:28:53;22.60;49.50
25482;DHT22;13395;50.752;4.268;2023-04-03T11:34:45;22.10;50.20
25482;DHT22;13395;50.752;4.268;2023-04-03T11:37:32;23.00;49.70
25482;DHT22;13395;50.752;4.268;2023-04-03T11:40:25;23.90;49.00
25482;DHT22;13395;50.752;4.268;2023-04-03T11:43:04;22.90;46.70
25482;DHT22;13395;50.752;4.268;2023-04-03T11:45:36;21.90;49.00
25482;DHT22;13395;50.752;4.268;2023-04-03T11:50:58;20.80;50.00
25482;DHT22;13395;50.752;4.268;2023-04-03T11:53:35;20.40;51.50
25482;DHT22;13395;50.752;4.268;2023-04-03T12:01:48;22.30;50.80
25482;DHT22;13395;50.752;4.268;2023-04-03T12:04:15;23.00;48.60
25482;DHT22;13395;50.752;4.268;2023-04-03T12:06:52;22.60;46.40
25482;DHT22;13395;50.752;4.268;2023-04-03T12:09:57;21.80;46.40
25482;DHT22;13395;50.752;4.268;2023-04-03T12:15:22;21.30;48.40
25482;DHT22;13395;50.752;4.268;2023-04-03T12:17:48;22.40;47.00
25482;DHT22;13395;50.752;4.268;2023-04-03T12:23:33;22.20;45.80
25482;DHT22;13395;50.752;4.268;2023-04-03T12:26:21;21.90;46.90
25482;DHT22;13395;50.752;4.268;2023-04-03T12:28:48;21.90;46.90
25482;DHT22;13395;50.752;4.268;2023-04-03T12:31:16;21.90;46.50
25482;DHT22;13395;50.752;4.268;2023-04-03T12:34:02;21.50;45.80
25482;DHT22;13395;50.752;4.268;2023-04-03T12:42:22;23.10;46.60
25482;DHT22;13395;50.752;4.268;2023-04-03T12:47:43;22.40;45.20
25482;DHT22;13395;50.752;4.268;2023-04-03T12:50:22;22.10;44.90
25482;DHT22;13395;50.752;4.268;2023-04-03T12:55:29;20.40;46.20
25482;DHT22;13395;50.752;4.268;2023-04-03T12:57:55;19.80;47.60
25482;DHT22;13395;50.752;4.268;2023-04-03T13:00:35;19.80;48.20
25482;DHT22;13395;50.752;4.268;2023-04-03T13:03:03;20.10;48.20
25482;DHT22;13395;50.752;4.268;2023-04-03T13:05:31;20.20;47.20
25482;DHT22;13395;50.752;4.268;2023-04-03T13:08:03;19.30;48.50
25482;DHT22;13395;50.752;4.268;2023-04-03T13:10:31;18.90;47.90
25482;DHT22;13395;50.752;4.268;2023-04-03T13:13:07;18.80;47.40
25482;DHT22;13395;50.752;4.268;2023-04-03T13:15:47;18.70;47.90
25482;DHT22;13395;50.752;4.268;2023-04-03T13:18:33;19.50;47.80
25482;DHT22;13395;50.752;4.268;2023-04-03T13:21:15;20.40;46.80
25482;DHT22;13395;50.752;4.268;2023-04-03T13:23:45;20.20;46.80
25482;DHT22;13395;50.752;4.268;2023-04-03T13:26:15;20.40;46.10
25482;DHT22;13395;50.752;4.268;2023-04-03T13:28:42;20.30;44.20
25482;DHT22;13395;50.752;4.268;2023-04-03T13:31:14;20.30;46.50
25482;DHT22;13395;50.752;4.268;2023-04-03T13:34:13;20.90;46.20
25482;DHT22;13395;50.752;4.268;2023-04-03T13:41:50;18.90;46.30
25482;DHT22;13395;50.752;4.268;2023-04-03T13:46:53;16.30;48.50
25482;DHT22;13395;50.752;4.268;2023-04-03T13:49:37;16.00;48.90
25482;DHT22;13395;50.752;4.268;2023-04-03T13:54:52;15.20;51.00
25482;DHT22;13395;50.752;4.268;2023-04-03T13:57:19;15.10;52.00
25482;DHT22;13395;50.752;4.268;2023-04-03T13:59:46;15.10;51.80
25482;DHT22;13395;50.752;4.268;2023-04-03T14:02:28;14.90;52.50
25482;DHT22;13395;50.752;4.268;2023-04-03T14:04:57;14.80;52.60
25482;DHT22;13395;50.752;4.268;2023-04-03T14:07:27;14.80;52.90
25482;DHT22;13395;50.752;4.268;2023-04-03T14:09:53;14.40;53.60
25482;DHT22;13395;50.752;4.268;2023-04-03T14:12:31;14.30;52.30
25482;DHT22;13395;50.752;4.268;2023-04-03T14:15:00;14.30;53.40
25482;DHT22;13395;50.752;4.268;2023-04-03T14:17:27;14.30;53.10
25482;DHT22;13395;50.752;4.268;2023-04-03T14:19:54;14.30;53.30
25482;DHT22;13395;50.752;4.268;2023-04-03T14:22:31;14.00;52.90
25482;DHT22;13395;50.752;4.268;2023-04-03T14:24:58;13.80;53.60
25482;DHT22;13395;50.752;4.268;2023-04-03T14:27:30;13.80;54.40
25482;DHT22;13395;50.752;4.268;2023-04-03T14:29:58;13.90;54.60
25482;DHT22;13395;50.752;4.268;2023-04-03T14:32:25;14.10;55.60
25482;DHT22;13395;50.752;4.268;2023-04-03T14:34:52;14.00;54.00
25482;DHT22;13395;50.752;4.268;2023-04-03T14:37:23;14.00;55.20
25482;DHT22;13395;50.752;4.268;2023-04-03T14:39:51;13.80;55.60
25482;DHT22;13395;50.752;4.268;2023-04-03T14:42:23;13.90;57.00
25482;DHT22;13395;50.752;4.268;2023-04-03T14:44:51;14.00;55.60
25482;DHT22;13395;50.752;4.268;2023-04-03T14:47:22;13.70;55.30
25482;DHT22;13395;50.752;4.268;2023-04-03T14:49:50;13.50;56.60
25482;DHT22;13395;50.752;4.268;2023-04-03T14:52:23;13.50;56.70
25482;DHT22;13395;50.752;4.268;2023-04-03T14:54:50;13.40;57.50
25482;DHT22;13395;50.752;4.268;2023-04-03T14:57:16;13.40;55.80
25482;DHT22;13395;50.752;4.268;2023-04-03T14:59:44;13.50;57.70
25482;DHT22;13395;50.752;4.268;2023-04-03T15:02:24;13.40;55.60
25482;DHT22;13395;50.752;4.268;2023-04-03T15:04:50;13.40;54.90
25482;DHT22;13395;50.752;4.268;2023-04-03T15:07:16;13.30;56.10
25482;DHT22;13395;50.752;4.268;2023-04-03T15:09:41;13.20;55.50
25482;DHT22;13395;50.752;4.268;2023-04-03T15:12:08;13.00;53.50
25482;DHT22;13395;50.752;4.268;2023-04-03T15:14:34;12.90;54.40
25482;DHT22;13395;50.752;4.268;2023-04-03T15:17:00;12.90;54.80
25482;DHT22;13395;50.752;4.268;2023-04-03T15:19:25;12.90;54.70
25482;DHT22;13395;50.752;4.268;2023-04-03T15:21:51;12.90;54.70
25482;DHT22;13395;50.752;4.268;2023-04-03T15:24:16;12.70;54.40
25482;DHT22;13395;50.752;4.268;2023-04-03T15:26:44;12.70;56.00
25482;DHT22;13395;50.752;4.268;2023-04-03T15:29:10;12.70;55.40
25482;DHT22;13395;50.752;4.268;2023-04-03T15:31:35;12.50;55.60
25482;DHT22;13395;50.752;4.268;2023-04-03T15:34:02;12.60;55.50
25482;DHT22;13395;50.752;4.268;2023-04-03T15:36:29;12.60;55.40
25482;DHT22;13395;50.752;4.268;2023-04-03T15:38:55;12.40;55.00
25482;DHT22;13395;50.752;4.268;2023-04-03T15:41:20;12.30;55.80
25482;DHT22;13395;50.752;4.268;2023-04-03T15:43:46;12.40;56.70
25482;DHT22;13395;50.752;4.268;2023-04-03T15:46:12;12.40;55.60
25482;DHT22;13395;50.752;4.268;2023-04-03T15:48:38;12.30;55.60
25482;DHT22;13395;50.752;4.268;2023-04-03T15:51:05;12.40;55.70
25482;DHT22;13395;50.752;4.268;2023-04-03T15:53:31;12.20;56.90
25482;DHT22;13395;50.752;4.268;2023-04-03T15:55:57;12.00;57.10
25482;DHT22;13395;50.752;4.268;2023-04-03T15:58:22;12.00;57.80
25482;DHT22;13395;50.752;4.268;2023-04-03T16:00:48;12.00;58.30
25482;DHT22;13395;50.752;4.268;2023-04-03T16:03:19;11.90;59.10
25482;DHT22;13395;50.752;4.268;2023-04-03T16:05:46;12.00;58.80
25482;DHT22;13395;50.752;4.268;2023-04-03T16:08:12;12.00;58.40
25482;DHT22;13395;50.752;4.268;2023-04-03T16:10:38;11.90;59.20
25482;DHT22;13395;50.752;4.268;2023-04-03T16:13:05;11.90;59.30
25482;DHT22;13395;50.752;4.268;2023-04-03T16:15:31;11.90;59.90
25482;DHT22;13395;50.752;4.268;2023-04-03T16:18:01;11.80;60.40
25482;DHT22;13395;50.752;4.268;2023-04-03T16:20:27;11.80;60.60
25482;DHT22;13395;50.752;4.268;2023-04-03T16:22:53;11.80;61.30
25482;DHT22;13395;50.752;4.268;2023-04-03T16:25:21;11.60;60.20
25482;DHT22;13395;50.752;4.268;2023-04-03T16:27:48;11.60;60.90
25482;DHT22;13395;50.752;4.268;2023-04-03T16:30:13;11.50;60.20
25482;DHT22;13395;50.752;4.268;2023-04-03T16:32:40;11.60;62.10
25482;DHT22;13395;50.752;4.268;2023-04-03T16:35:06;11.50;61.90
25482;DHT22;13395;50.752;4.268;2023-04-03T16:37:32;11.50;62.30
25482;DHT22;13395;50.752;4.268;2023-04-03T16:39:58;11.50;62.70
25482;DHT22;13395;50.752;4.268;2023-04-03T16:42:24;11.40;62.80
25482;DHT22;13395;50.752;4.268;2023-04-03T16:44:50;11.20;62.40
25482;DHT22;13395;50.752;4.268;2023-04-03T16:47:16;11.30;63.00
25482;DHT22;13395;50.752;4.268;2023-04-03T16:49:53;11.20;63.30
25482;DHT22;13395;50.752;4.268;2023-04-03T16:52:19;11.30;64.40
25482;DHT22;13395;50.752;4.268;2023-04-03T16:54:44;11.20;63.60
25482;DHT22;13395;50.752;4.268;2023-04-03T16:57:10;11.10;63.80
25482;DHT22;13395;50.752;4.268;2023-04-03T16:59:36;11.10;64.50
25482;DHT22;13395;50.752;4.268;2023-04-03T17:02:01;11.00;63.80
25482;DHT22;13395;50.752;4.268;2023-04-03T17:04:28;11.00;65.20
25482;DHT22;13395;50.752;4.268;2023-04-03T17:06:54;10.90;65.00
25482;DHT22;13395;50.752;4.268;2023-04-03T17:09:20;10.90;65.60
25482;DHT22;13395;50.752;4.268;2023-04-03T17:11:46;10.90;67.50
25482;DHT22;13395;50.752;4.268;2023-04-03T17:14:12;10.90;66.90
25482;DHT22;13395;50.752;4.268;2023-04-03T17:16:38;10.80;66.90
25482;DHT22;13395;50.752;4.268;2023-04-03T17:19:04;10.80;67.60
25482;DHT22;13395;50.752;4.268;2023-04-03T17:21:31;10.70;67.50
25482;DHT22;13395;50.752;4.268;2023-04-03T17:24:02;10.60;67.40
25482;DHT22;13395;50.752;4.268;2023-04-03T17:26:28;10.60;67.30
25482;DHT22;13395;50.752;4.268;2023-04-03T17:28:54;10.50;68.20